Time;durP1;ratioP1;P1;durP2;ratioP2;P2;SDS_P1;SDS_P2;PMS_P1;PMS_P2;Temp;Humidity;BMP_temperature;BMP_pressure;BME280_temperature;BME280_humidity;BME280_pressure;Samples;Min_cycle;Max_cycle;Signal;HPM_P1;HPM_P2
2022/06/30 00:01:44;;;;;;;8.30;7.12;;;;;;;23.49;67.99;98983.53;1744672;79;20927;-67
2022/06/30 00:04:11;;;;;;;7.75;7.15;;;;;;;23.45;68.20;98972.91;1756300;81;20970;-68
2022/06/30 00:06:39;;;;;;;7.97;7.28;;;;;;;23.41;68.30;98969.94;1732453;81;20851;-67
2022/06/30 00:09:05;;;;;;;9.15;8.25;;;;;;;23.44;68.41;98967.23;1741948;81;21134;-68
2022/06/30 00:11:33;;;;;;;10.05;7.62;;;;;;;23.48;68.43;98973.21;1773891;81;21344;-70
2022/06/30 00:13:59;;;;;;;8.13;7.58;;;;;;;23.54;68.39;98968.62;1765570;79;20876;-69
2022/06/30 00:16:25;;;;;;;8.85;7.45;;;;;;;23.59;68.23;98964.56;1750373;81;20950;-69
2022/06/30 00:18:52;;;;;;;8.35;7.67;;;;;;;23.61;68.12;98963.75;1738010;81;21004;-67
2022/06/30 00:21:18;;;;;;;8.50;7.65;;;;;;;23.60;68.07;98965.64;1754160;81;21241;-71
2022/06/30 00:23:45;;;;;;;8.10;7.50;;;;;;;23.59;68.09;98957.24;1732351;81;20879;-68
2022/06/30 00:26:12;;;;;;;7.97;7.35;;;;;;;23.60;68.13;98958.03;1732507;81;21025;-69
2022/06/30 00:28:38;;;;;;;8.98;7.45;;;;;;;23.57;68.18;98958.02;1758865;80;21441;-69
2022/06/30 00:31:05;;;;;;;9.00;8.15;;;;;;;23.50;68.30;98958.00;1759313;79;21492;-67
2022/06/30 00:33:31;;;;;;;9.35;7.25;;;;;;;23.43;68.52;98956.91;1753041;81;21506;-69
2022/06/30 00:35:58;;;;;;;7.95;6.95;;;;;;;23.40;68.69;98956.08;1732320;81;21457;-70
2022/06/30 00:38:25;;;;;;;8.08;7.55;;;;;;;23.39;68.81;98959.06;1732675;81;20918;-69
2022/06/30 00:40:52;;;;;;;7.90;7.30;;;;;;;23.39;68.83;98955.79;1771370;81;21538;-68
2022/06/30 00:43:18;;;;;;;8.20;7.40;;;;;;;23.40;68.97;98945.75;1746687;81;20906;-69
2022/06/30 00:45:47;;;;;;;8.20;7.50;;;;;;;23.43;68.96;98946.05;1732269;81;21307;-70
2022/06/30 00:48:14;;;;;;;8.40;7.60;;;;;;;23.42;68.93;98955.27;1732287;81;20985;-67
2022/06/30 00:50:41;;;;;;;8.13;7.40;;;;;;;23.38;69.04;98960.96;1755938;81;21500;-69
2022/06/30 00:53:09;;;;;;;8.00;7.28;;;;;;;23.35;69.21;98964.99;1772944;81;20952;-67
2022/06/30 00:55:37;;;;;;;7.70;7.00;;;;;;;23.32;69.31;98957.37;1786645;79;20982;-68
2022/06/30 00:58:08;;;;;;;8.28;7.53;;;;;;;23.32;69.37;98962.80;1790302;80;21231;-69
2022/06/30 01:00:40;;;;;;;7.92;7.22;;;;;;;23.29;69.50;98959.26;1767912;80;21538;-68
2022/06/30 01:03:08;;;;;;;7.92;7.22;;;;;;;23.29;69.55;98957.90;1759015;80;20956;-70
2022/06/30 01:05:35;;;;;;;7.30;6.80;;;;;;;23.30;69.66;98954.12;1777556;80;20966;-71
2022/06/30 01:08:04;;;;;;;8.03;7.25;;;;;;;23.29;69.75;98964.69;1790362;80;20942;-70
2022/06/30 01:13:18;;;;;;;7.70;6.97;;;;;;;23.21;69.91;98961.12;1759052;80;20846;-67
2022/06/30 01:15:45;;;;;;;7.80;7.20;;;;;;;23.15;70.06;98957.30;1759169;80;20929;-68
2022/06/30 01:18:11;;;;;;;8.63;7.78;;;;;;;23.12;70.15;98964.07;1759141;80;21032;-70
2022/06/30 01:20:38;;;;;;;7.87;7.08;;;;;;;23.06;70.35;98960.22;1773737;80;20874;-67
2022/06/30 01:23:05;;;;;;;8.08;7.35;;;;;;;23.01;70.57;98960.20;1759181;80;21237;-70
2022/06/30 01:25:32;;;;;;;8.03;7.33;;;;;;;23.00;70.89;98957.20;1762478;80;21000;-67
2022/06/30 01:27:58;;;;;;;7.85;7.20;;;;;;;23.00;71.08;98959.38;1789502;79;20879;-69
2022/06/30 01:30:24;;;;;;;8.28;7.47;;;;;;;23.02;71.15;98966.70;1784301;79;20966;-67
2022/06/30 01:32:51;;;;;;;8.03;7.33;;;;;;;23.03;71.17;98973.77;1759016;80;21385;-69
2022/06/30 01:35:18;;;;;;;8.98;8.25;;;;;;;23.02;71.19;98969.98;1759144;80;21224;-71
2022/06/30 01:37:50;;;;;;;7.97;7.37;;;;;;;23.03;71.21;98968.88;1781060;80;20962;-70
2022/06/30 01:40:17;;;;;;;10.45;7.15;;;;;;;23.06;71.26;98973.78;1774175;80;21374;-69
2022/06/30 01:42:44;;;;;;;8.23;7.62;;;;;;;23.05;71.34;98978.39;1768574;80;20969;-69
2022/06/30 01:45:11;;;;;;;8.48;7.83;;;;;;;23.04;71.29;98978.66;1777602;80;21386;-69
2022/06/30 01:47:38;;;;;;;8.00;7.40;;;;;;;23.00;71.32;98972.94;1771229;79;21177;-71
2022/06/30 01:50:07;;;;;;;7.87;7.28;;;;;;;22.95;71.34;98971.55;1764344;80;20934;-69
2022/06/30 01:52:34;;;;;;;7.67;7.12;;;;;;;22.91;71.40;98971.81;1759013;80;20937;-70
2022/06/30 01:55:00;;;;;;;8.98;7.62;;;;;;;22.87;71.61;98973.40;1764277;80;20923;-68
2022/06/30 01:57:27;;;;;;;8.13;7.30;;;;;;;22.86;71.73;98971.78;1776632;80;20885;-69
2022/06/30 01:59:53;;;;;;;7.90;7.30;;;;;;;22.84;71.97;98967.70;1769633;80;21117;-68
2022/06/30 02:02:20;;;;;;;8.15;7.55;;;;;;;22.87;72.10;98967.16;1761492;80;20846;-68
2022/06/30 02:04:47;;;;;;;8.40;7.60;;;;;;;22.86;72.12;98966.36;1782529;80;20883;-69
2022/06/30 02:07:20;;;;;;;7.92;7.40;;;;;;;22.82;72.07;98963.87;1762086;80;20922;-67
2022/06/30 02:09:50;;;;;;;7.92;7.28;;;;;;;22.79;72.18;98965.75;1772955;80;21420;-68
2022/06/30 02:15:02;;;;;;;8.40;7.80;;;;;;;22.74;72.51;98964.36;1761715;80;20928;-71
2022/06/30 02:17:29;;;;;;;8.35;7.75;;;;;;;22.72;72.65;98964.64;1787340;78;20851;-69
2022/06/30 02:19:56;;;;;;;8.60;8.00;;;;;;;22.68;72.83;98972.20;1787974;80;20923;-68
2022/06/30 02:22:22;;;;;;;8.30;7.67;;;;;;;22.66;72.88;98970.27;1764246;80;21028;-68
2022/06/30 02:24:48;;;;;;;8.83;8.03;;;;;;;22.62;72.94;98973.20;1761473;80;21192;-69
2022/06/30 02:27:15;;;;;;;8.53;7.72;;;;;;;22.58;73.15;98974.25;1787273;80;20903;-71
2022/06/30 02:29:41;;;;;;;8.00;7.47;;;;;;;22.60;73.40;98974.80;1788514;78;21009;-70
2022/06/30 02:32:08;;;;;;;8.90;7.95;;;;;;;22.63;73.55;98969.46;1774399;80;20967;-68
2022/06/30 02:34:36;;;;;;;8.15;7.55;;;;;;;22.63;73.37;98968.11;1783569;80;20999;-69
2022/06/30 02:37:03;;;;;;;8.83;7.90;;;;;;;22.63;73.27;98972.17;1775569;80;21237;-70
2022/06/30 02:39:31;;;;;;;8.53;7.72;;;;;;;22.61;73.14;98972.91;1774537;80;20921;-71
2022/06/30 02:41:57;;;;;;;8.63;7.40;;;;;;;22.61;73.24;98969.67;1772750;80;20885;-69
2022/06/30 02:44:24;;;;;;;7.60;7.00;;;;;;;22.64;73.43;98969.72;1761369;80;20981;-68
2022/06/30 02:46:50;;;;;;;8.75;7.90;;;;;;;22.69;73.48;98976.53;1761439;80;21409;-68
2022/06/30 02:49:18;;;;;;;8.90;8.20;;;;;;;22.70;73.43;98980.89;1778989;80;22059;-71
2022/06/30 02:51:45;;;;;;;8.03;7.33;;;;;;;22.74;73.29;98976.03;1789398;80;20962;-69
2022/06/30 02:54:12;;;;;;;9.48;8.45;;;;;;;22.76;73.03;98977.11;1776695;80;20980;-69
2022/06/30 02:56:39;;;;;;;8.50;7.80;;;;;;;22.81;73.13;98973.64;1765006;80;20929;-68
2022/06/30 02:59:05;;;;;;;8.08;7.42;;;;;;;22.86;73.07;98977.20;1792777;80;20974;-68
2022/06/30 03:01:33;;;;;;;8.58;7.97;;;;;;;22.90;72.95;98981.02;1769485;80;21254;-70
2022/06/30 03:04:02;;;;;;;9.13;8.45;;;;;;;22.95;72.85;98976.16;1782094;80;20881;-68
2022/06/30 03:06:30;;;;;;;8.75;8.05;;;;;;;22.98;72.94;98976.45;1761477;80;20886;-69
2022/06/30 03:08:57;;;;;;;8.10;7.58;;;;;;;23.07;72.90;98980.29;1768763;80;20976;-71
2022/06/30 03:11:24;;;;;;;8.68;8.08;;;;;;;23.15;72.82;98975.73;1772374;80;21463;-68
2022/06/30 03:13:51;;;;;;;8.75;8.05;;;;;;;23.25;72.57;98977.70;1761534;80;21238;-67
2022/06/30 03:16:17;;;;;;;8.43;7.62;;;;;;;23.36;72.32;98975.28;1777448;80;21548;-70
2022/06/30 03:18:44;;;;;;;8.88;8.08;;;;;;;23.48;71.97;98972.39;1767328;80;20973;-69
2022/06/30 03:21:13;;;;;;;9.28;8.55;;;;;;;23.63;71.59;98977.33;1778961;80;20980;-69
2022/06/30 03:23:40;;;;;;;9.95;9.13;;;;;;;23.79;71.14;98981.73;1762944;80;20889;-68
2022/06/30 03:26:06;;;;;;;9.28;8.48;;;;;;;23.99;70.61;98983.66;1782068;79;21266;-69
2022/06/30 03:28:33;;;;;;;9.65;8.75;;;;;;;24.17;69.93;98987.26;1776862;80;21013;-68
2022/06/30 03:31:01;;;;;;;10.30;8.70;;;;;;;24.37;69.26;98990.55;1787902;80;20910;-70
2022/06/30 03:33:27;;;;;;;9.35;8.65;;;;;;;24.54;68.60;98986.47;1761541;80;20898;-69
2022/06/30 03:35:54;;;;;;;10.13;8.55;;;;;;;24.71;68.04;98990.81;1761667;80;20980;-70
2022/06/30 03:38:20;;;;;;;9.48;8.60;;;;;;;24.90;67.59;98990.53;1783723;80;21203;-70
2022/06/30 03:40:47;;;;;;;9.63;8.93;;;;;;;25.09;66.93;98994.31;1782108;80;20863;-69
2022/06/30 03:43:13;;;;;;;9.38;8.58;;;;;;;25.32;66.34;98996.42;1770610;80;20994;-69
2022/06/30 03:45:40;;;;;;;11.90;8.40;;;;;;;25.65;65.26;98994.41;1793029;79;20887;-71
2022/06/30 03:48:08;;;;;;;8.98;8.23;;;;;;;26.05;63.96;98992.56;1770798;79;21475;-70
2022/06/30 03:50:35;;;;;;;10.32;9.43;;;;;;;26.44;62.76;98992.61;1777910;80;21099;-71
2022/06/30 03:53:02;;;;;;;9.35;8.65;;;;;;;26.82;61.43;98985.75;1789447;80;20954;-71
2022/06/30 03:55:29;;;;;;;9.43;8.73;;;;;;;27.18;60.20;98990.83;1751958;80;21016;-69
2022/06/30 03:57:55;;;;;;;9.78;8.98;;;;;;;27.55;59.26;98985.52;1732436;81;20930;-68
2022/06/30 04:00:23;;;;;;;8.90;8.10;;;;;;;27.97;58.09;98981.40;1744640;80;21042;-70
2022/06/30 04:02:50;;;;;;;9.28;8.68;;;;;;;28.41;56.87;98990.59;1732466;81;21306;-68
2022/06/30 04:05:16;;;;;;;9.45;8.63;;;;;;;28.78;55.45;98988.92;1732272;81;20886;-70
2022/06/30 04:07:46;;;;;;;9.73;8.98;;;;;;;29.10;54.33;98986.94;1732358;81;20978;-69
2022/06/30 04:10:13;;;;;;;10.28;8.90;;;;;;;29.50;53.17;98992.77;1751025;80;21535;-72
2022/06/30 04:12:40;;;;;;;11.63;10.63;;;;;;;29.91;52.21;98983.95;1771490;81;21384;-71
2022/06/30 04:15:07;;;;;;;10.28;9.08;;;;;;;30.35;51.03;98985.42;1773717;81;21008;-69
2022/06/30 04:17:34;;;;;;;9.78;8.98;;;;;;;30.80;49.93;98977.98;1759911;81;21527;-72
2022/06/30 04:20:06;;;;;;;9.68;8.88;;;;;;;31.26;48.54;98976.79;1756543;80;21438;-69
2022/06/30 04:22:33;;;;;;;9.05;8.35;;;;;;;31.67;47.52;98975.34;1732826;80;20965;-68
2022/06/30 04:24:59;;;;;;;9.88;9.13;;;;;;;32.07;46.74;98980.77;1732410;81;20923;-69
2022/06/30 04:27:26;;;;;;;9.48;8.78;;;;;;;32.47;45.67;98983.57;1732426;79;21131;-71
2022/06/30 04:29:52;;;;;;;9.88;9.10;;;;;;;32.87;44.66;98978.11;1762363;81;20966;-71
2022/06/30 04:35:08;;;;;;;9.35;8.65;;;;;;;33.72;42.82;98983.05;1753247;81;20966;-68
2022/06/30 04:37:35;;;;;;;8.33;7.65;;;;;;;34.15;41.81;98978.05;1769686;81;20915;-70
2022/06/30 04:42:47;;;;;;;9.80;8.98;;;;;;;35.01;40.24;98978.65;1773194;81;20837;-68
2022/06/30 04:45:14;;;;;;;8.90;8.23;;;;;;;35.39;39.40;98979.73;1745112;81;20967;-72
2022/06/30 04:47:41;;;;;;;9.15;8.25;;;;;;;35.66;38.73;98980.47;1772367;81;20858;-69
2022/06/30 04:50:08;;;;;;;8.80;8.20;;;;;;;35.96;38.24;98985.13;1750575;79;20892;-70
2022/06/30 04:52:36;;;;;;;9.10;8.28;;;;;;;36.31;37.71;98986.23;1750890;81;21787;-72
2022/06/30 04:55:02;;;;;;;8.58;7.75;;;;;;;36.72;36.76;98981.45;1732167;81;21587;-73
2022/06/30 04:57:29;;;;;;;9.90;9.05;;;;;;;37.07;35.81;98986.61;1751477;81;20955;-74
2022/06/30 04:59:55;;;;;;;8.88;8.18;;;;;;;37.31;34.98;98993.95;1743468;81;20920;-72
2022/06/30 05:02:22;;;;;;;8.30;7.70;;;;;;;37.39;34.82;98989.59;1758312;81;20962;-66
2022/06/30 05:04:49;;;;;;;9.15;8.30;;;;;;;37.57;34.56;98997.01;1732293;81;21222;-66
2022/06/30 05:07:16;;;;;;;9.40;8.53;;;;;;;37.78;34.60;98995.31;1732268;81;20934;-67
2022/06/30 05:09:44;;;;;;;10.10;8.50;;;;;;;38.12;33.90;98993.16;1739144;81;20971;-68
2022/06/30 05:12:11;;;;;;;8.75;8.00;;;;;;;38.42;33.62;98996.98;1762534;81;20958;-66
2022/06/30 05:14:38;;;;;;;9.43;8.58;;;;;;;38.82;32.97;98989.67;1754153;81;20891;-69
2022/06/30 05:17:05;;;;;;;9.78;8.28;;;;;;;39.33;32.32;98984.64;1773854;81;21398;-72
2022/06/30 05:19:33;;;;;;;8.38;7.62;;;;;;;39.84;31.40;98978.91;1759078;81;20919;-72
2022/06/30 05:21:59;;;;;;;8.18;7.58;;;;;;;40.13;31.05;98982.91;1743300;79;20910;-73
2022/06/30 05:27:11;;;;;;;8.48;7.75;;;;;;;40.93;29.79;98976.77;1740108;81;21413;-67
2022/06/30 05:29:38;;;;;;;8.33;7.70;;;;;;;41.28;28.79;98988.23;1737120;81;21229;-72
2022/06/30 05:32:06;;;;;;;8.15;7.40;;;;;;;41.46;28.33;98988.41;1749902;81;21035;-69
2022/06/30 05:34:34;;;;;;;8.98;8.18;;;;;;;41.58;28.38;98993.70;1763491;79;21458;-67
2022/06/30 05:37:03;;;;;;;12.70;7.97;;;;;;;41.76;28.48;98992.45;1745034;81;21054;-69
2022/06/30 05:39:32;;;;;;;7.75;7.05;;;;;;;42.10;28.19;98987.45;1753324;80;20938;-70
2022/06/30 05:42:02;;;;;;;8.43;7.70;;;;;;;42.47;27.14;98984.47;1735848;81;22161;-68
2022/06/30 05:44:29;;;;;;;8.75;7.78;;;;;;;42.59;26.66;98989.72;1759907;81;20998;-69
2022/06/30 05:46:55;;;;;;;7.72;6.87;;;;;;;42.65;26.61;98985.35;1763753;81;21043;-69
2022/06/30 05:49:23;;;;;;;8.20;7.55;;;;;;;42.80;26.13;98986.39;1766457;81;21321;-69
2022/06/30 05:51:50;;;;;;;10.23;7.60;;;;;;;42.95;26.12;98992.23;1760546;80;20929;-70
2022/06/30 05:54:16;;;;;;;8.70;7.90;;;;;;;43.25;24.87;98989.67;1740783;79;21288;-72
2022/06/30 05:56:43;;;;;;;8.70;8.03;;;;;;;43.52;24.64;98990.28;1762602;79;20978;-70
2022/06/30 05:59:09;;;;;;;8.40;7.80;;;;;;;43.83;24.71;98985.87;1787210;80;20962;-66
2022/06/30 06:01:37;;;;;;;6.95;6.25;;;;;;;44.35;23.92;98987.55;1769128;80;21088;-67
2022/06/30 06:04:05;;;;;;;8.08;6.50;;;;;;;44.70;23.40;98992.41;1755955;80;21500;-67
2022/06/30 06:06:31;;;;;;;8.13;7.45;;;;;;;45.19;23.02;98984.88;1776060;80;21200;-70
2022/06/30 06:08:58;;;;;;;8.20;7.40;;;;;;;45.69;22.35;98995.13;1752405;80;20863;-68
2022/06/30 06:11:25;;;;;;;8.48;7.85;;;;;;;45.81;22.55;98996.03;1774775;80;21087;-67
2022/06/30 06:13:52;;;;;;;8.78;8.03;;;;;;;46.28;22.11;98997.14;1755945;80;21048;-71
2022/06/30 06:16:18;;;;;;;8.50;7.67;;;;;;;46.41;21.99;98996.17;1776642;80;21072;-66
2022/06/30 06:18:45;;;;;;;11.33;7.60;;;;;;;46.64;21.98;98990.46;1756143;80;21237;-66
2022/06/30 06:21:12;;;;;;;10.58;6.97;;;;;;;46.90;21.68;99000.37;1761148;80;21021;-70
2022/06/30 06:23:38;;;;;;;11.50;7.70;;;;;;;47.01;21.83;99003.02;1774745;79;20993;-70
2022/06/30 06:26:05;;;;;;;9.03;7.95;;;;;;;47.33;20.64;99006.74;1762630;80;21169;-66
2022/06/30 06:31:17;;;;;;;9.30;7.03;;;;;;;47.06;20.32;99008.94;1751501;80;21366;-68
2022/06/30 06:33:45;;;;;;;7.40;6.33;;;;;;;47.52;19.41;99004.04;1782835;80;21113;-66
2022/06/30 06:36:13;;;;;;;5.97;5.47;;;;;;;47.35;18.80;99006.50;1755544;80;20975;-68
2022/06/30 06:38:40;;;;;;;7.15;6.47;;;;;;;47.12;19.22;99007.88;1793145;78;20978;-66
2022/06/30 06:41:08;;;;;;;5.87;5.47;;;;;;;47.40;18.96;99009.46;1785994;79;21113;-66
2022/06/30 06:43:35;;;;;;;7.35;6.70;;;;;;;47.63;18.96;99003.86;1776106;80;21547;-65
2022/06/30 06:46:02;;;;;;;6.78;6.20;;;;;;;47.92;18.45;99016.84;1777989;78;20954;-66
2022/06/30 06:48:29;;;;;;;7.37;6.70;;;;;;;47.89;18.50;99024.14;1764734;80;20967;-65
2022/06/30 06:50:55;;;;;;;6.90;6.33;;;;;;;48.00;18.47;99020.51;1770305;80;21033;-66
2022/06/30 06:53:21;;;;;;;6.70;6.30;;;;;;;48.12;18.41;99017.05;1781650;80;21066;-68
2022/06/30 06:55:48;;;;;;;6.75;6.30;;;;;;;48.33;18.54;99020.69;1783265;80;22028;-70
2022/06/30 06:58:16;;;;;;;7.30;6.78;;;;;;;48.67;18.07;99016.96;1790934;79;20966;-70
2022/06/30 07:00:42;;;;;;;7.97;7.40;;;;;;;48.52;18.20;99022.12;1793113;80;20997;-67
2022/06/30 07:03:08;;;;;;;9.68;7.65;;;;;;;48.16;18.73;99017.75;1792789;80;20966;-68
2022/06/30 07:05:35;;;;;;;8.53;7.72;;;;;;;46.79;20.03;99033.48;1792299;79;21075;-67
2022/06/30 07:08:02;;;;;;;7.60;6.97;;;;;;;46.79;20.03;99033.48;1777893;78;21143;-72
2022/06/30 07:10:29;;;;;;;8.28;7.53;;;;;;;46.21;20.65;99028.93;1766701;80;20917;-71
2022/06/30 07:12:55;;;;;;;7.92;7.42;;;;;;;45.94;21.09;99024.57;1778554;78;20954;-69
2022/06/30 07:15:22;;;;;;;7.47;6.87;;;;;;;45.93;21.11;99027.81;1761510;80;20988;-69
2022/06/30 07:17:49;;;;;;;8.83;7.75;;;;;;;45.80;20.69;99027.54;1780951;80;20901;-69
2022/06/30 07:20:15;;;;;;;8.45;7.85;;;;;;;45.61;20.54;99026.67;1792341;79;22052;-73
2022/06/30 07:22:42;;;;;;;8.55;7.85;;;;;;;45.62;20.78;99024.10;1792794;79;21582;-73
2022/06/30 07:25:09;;;;;;;9.55;8.58;;;;;;;45.83;21.02;99018.88;1764397;79;20984;-68
2022/06/30 07:27:35;;;;;;;9.45;8.70;;;;;;;46.11;20.83;99026.23;1771213;80;21539;-71
2022/06/30 07:30:03;;;;;;;10.18;9.40;;;;;;;46.11;20.66;99029.05;1768827;80;21538;-68
2022/06/30 07:32:30;;;;;;;11.73;8.63;;;;;;;45.57;21.45;99028.73;1761796;80;21778;-66
2022/06/30 07:34:57;;;;;;;10.82;8.60;;;;;;;45.42;22.15;99016.63;1783628;80;20905;-63
2022/06/30 07:37:23;;;;;;;10.13;9.05;;;;;;;45.78;21.73;99031.38;1767883;80;20974;-68
2022/06/30 07:39:50;;;;;;;9.95;8.90;;;;;;;46.12;20.91;99033.47;1790192;80;20923;-67
2022/06/30 07:42:17;;;;;;;8.88;8.18;;;;;;;46.13;20.88;99030.22;1792988;80;20918;-66
2022/06/30 07:44:43;;;;;;;8.43;7.92;;;;;;;45.83;21.25;99035.74;1768320;80;21176;-71
2022/06/30 07:47:10;;;;;;;9.63;7.95;;;;;;;45.74;21.07;99029.20;1789565;80;20879;-69
2022/06/30 07:49:38;;;;;;;9.55;8.85;;;;;;;45.64;21.27;99039.13;1774163;80;20911;-66
2022/06/30 07:52:06;;;;;;;8.73;8.15;;;;;;;45.15;21.51;99033.24;1770094;79;21475;-66
2022/06/30 07:54:32;;;;;;;8.63;7.90;;;;;;;44.96;22.11;99040.17;1761733;80;21527;-67
2022/06/30 07:56:59;;;;;;;7.97;7.40;;;;;;;44.79;21.85;99037.66;1749503;80;21806;-69
2022/06/30 07:59:26;;;;;;;8.08;7.37;;;;;;;44.50;21.50;99040.39;1760297;81;20906;-67
2022/06/30 08:01:52;;;;;;;7.95;7.25;;;;;;;43.81;22.46;99045.70;1766355;81;21070;-67
2022/06/30 08:04:19;;;;;;;7.45;6.80;;;;;;;43.14;23.26;99042.83;1766211;81;20986;-67
2022/06/30 08:06:45;;;;;;;7.10;6.70;;;;;;;43.16;23.09;99041.02;1748052;81;20912;-68
2022/06/30 08:09:12;;;;;;;7.37;6.80;;;;;;;43.44;22.88;99045.30;1749095;80;21239;-68
2022/06/30 08:11:39;;;;;;;6.90;6.33;;;;;;;43.73;22.84;99046.91;1732094;81;20934;-67
2022/06/30 08:14:05;;;;;;;7.85;7.15;;;;;;;44.00;22.16;99054.28;1732062;81;21068;-69
2022/06/30 08:16:33;;;;;;;7.30;6.80;;;;;;;43.93;21.83;99059.31;1731964;81;21056;-69
2022/06/30 08:18:59;;;;;;;7.30;6.70;;;;;;;43.71;22.25;99065.28;1735024;81;21405;-69
2022/06/30 08:21:26;;;;;;;9.50;6.85;;;;;;;43.58;22.37;99064.30;1764393;81;22130;-70
2022/06/30 08:23:52;;;;;;;7.25;6.62;;;;;;;43.79;22.44;99061.31;1732061;81;21535;-69
2022/06/30 08:26:19;;;;;;;8.65;7.00;;;;;;;43.88;21.93;99069.52;1732381;81;20934;-66
2022/06/30 08:28:46;;;;;;;7.33;6.83;;;;;;;43.63;22.29;99073.70;1732614;81;21010;-69
2022/06/30 08:31:12;;;;;;;8.20;7.03;;;;;;;43.51;22.40;99071.89;1757810;80;21552;-69
2022/06/30 08:33:39;;;;;;;8.00;6.78;;;;;;;43.35;22.70;99068.08;1738319;81;21819;-67
2022/06/30 08:36:05;;;;;;;7.70;5.92;;;;;;;43.11;23.25;99067.41;1763919;81;21039;-69
2022/06/30 08:38:32;;;;;;;10.58;7.00;;;;;;;43.42;22.72;99063.88;1758513;81;21017;-67
2022/06/30 08:43:45;;;;;;;7.77;7.13;;;;;;;44.00;22.51;99069.69;1766769;80;21516;-67
2022/06/30 08:46:12;;;;;;;7.17;6.70;;;;;;;43.96;22.82;99071.72;1773353;79;21438;-69
2022/06/30 08:48:39;;;;;;;8.08;7.40;;;;;;;43.87;23.05;99064.30;1732287;81;20978;-69
2022/06/30 08:51:07;;;;;;;8.53;7.85;;;;;;;43.84;23.30;99058.10;1732327;81;21007;-67
2022/06/30 08:53:53;;;;;;;7.37;6.67;;;;;;;44.02;23.47;99063.88;1732249;81;20958;-67
2022/06/30 08:56:20;;;;;;;7.70;6.80;;;;;;;44.43;23.11;99062.80;1732447;81;20895;-67
2022/06/30 08:58:48;;;;;;;7.55;7.15;;;;;;;44.74;22.73;99074.52;1772606;80;21226;-68
2022/06/30 09:01:15;;;;;;;6.70;6.17;;;;;;;44.54;22.31;99067.80;1780742;80;21033;-69
2022/06/30 09:03:41;;;;;;;6.75;6.25;;;;;;;43.63;23.00;99072.30;1764072;80;20932;-69
2022/06/30 09:06:07;;;;;;;6.70;6.30;;;;;;;42.74;23.63;99079.44;1761512;80;21035;-67
2022/06/30 09:08:36;;;;;;;6.90;5.97;;;;;;;41.90;24.63;99079.10;1783513;80;21016;-68
2022/06/30 09:11:04;;;;;;;5.90;5.40;;;;;;;41.46;25.37;99080.51;1761502;80;21129;-66
2022/06/30 09:13:42;;;;;;;9.05;6.62;;;;;;;41.50;25.17;99073.57;1761468;80;20873;-70
2022/06/30 09:16:09;;;;;;;7.78;6.10;;;;;;;41.26;24.89;99070.13;1761466;80;20941;-70
2022/06/30 09:18:36;;;;;;;6.55;5.95;;;;;;;41.12;25.53;99078.34;1761580;80;21052;-68
2022/06/30 09:21:19;;;;;;;6.35;5.92;;;;;;;41.25;25.37;99074.09;1761429;78;21019;-69
2022/06/30 09:23:47;;;;;;;6.15;5.62;;;;;;;41.68;24.86;99074.52;1783533;80;21237;-66
2022/06/30 09:26:20;;;;;;;9.03;6.17;;;;;;;42.45;24.00;99077.89;1773891;80;20954;-70
2022/06/30 09:28:55;;;;;;;6.15;5.58;;;;;;;42.60;23.62;99073.81;1770652;79;21519;-69
2022/06/30 09:31:38;;;;;;;6.33;5.83;;;;;;;42.26;23.88;99072.62;1779971;80;20899;-69
2022/06/30 09:34:16;;;;;;;6.37;5.97;;;;;;;42.68;23.71;99071.25;1761438;80;20961;-69
2022/06/30 09:36:43;;;;;;;6.03;5.62;;;;;;;43.06;23.49;99067.80;1782305;80;21335;-70
2022/06/30 09:39:13;;;;;;;6.12;5.67;;;;;;;43.59;22.98;99065.09;1792770;80;20958;-70
2022/06/30 09:41:41;;;;;;;5.65;5.25;;;;;;;43.64;22.76;99070.30;1763006;80;20936;-68
2022/06/30 09:44:24;;;;;;;5.97;5.33;;;;;;;43.77;22.65;99069.32;1761404;80;20988;-68
2022/06/30 09:47:15;;;;;;;6.42;5.75;;;;;;;44.26;22.13;99066.47;1766366;80;20885;-68
2022/06/30 09:49:44;;;;;;;6.60;6.20;;;;;;;44.47;21.38;99062.20;1782444;80;21978;-68
2022/06/30 09:52:21;;;;;;;7.37;5.87;;;;;;;43.75;22.10;99068.93;1761454;80;21420;-69
2022/06/30 09:55:06;;;;;;;5.87;5.45;;;;;;;43.20;22.65;99069.83;1751424;80;20933;-68
2022/06/30 09:57:38;;;;;;;;;;;;;;;43.36;22.90;99066.86;1778515;79;20978;-68
2022/06/30 10:00:12;;;;;;;5.50;5.10;;;;;;;44.07;22.09;99055.66;1785946;79;20117;-71
2022/06/30 10:02:45;;;;;;;5.35;4.95;;;;;;;44.52;21.29;99056.80;1759169;80;21545;-68
2022/06/30 10:05:11;;;;;;;5.85;5.15;;;;;;;44.55;21.05;99058.19;1758961;80;20926;-71
2022/06/30 10:07:38;;;;;;;6.03;5.53;;;;;;;43.99;21.48;99052.08;1759145;80;20985;-67
2022/06/30 10:10:08;;;;;;;7.47;5.22;;;;;;;43.24;22.44;99056.63;1780908;80;20919;-69
2022/06/30 10:12:36;;;;;;;5.17;4.75;;;;;;;42.53;23.50;99051.42;1759073;80;21039;-70
2022/06/30 10:15:06;;;;;;;5.50;5.10;;;;;;;41.67;23.96;99059.76;1758974;80;21138;-68
2022/06/30 10:17:35;;;;;;;5.62;5.20;;;;;;;40.96;24.58;99054.06;1767885;80;20877;-70
2022/06/30 10:20:03;;;;;;;6.15;5.53;;;;;;;40.41;25.96;99054.94;1759107;80;21419;-69
2022/06/30 10:22:30;;;;;;;6.42;5.55;;;;;;;39.80;27.15;99053.81;1758983;80;20937;-67
2022/06/30 10:24:57;;;;;;;5.65;5.15;;;;;;;38.94;27.90;99056.22;1759064;80;20898;-67
2022/06/30 10:27:25;;;;;;;5.30;5.00;;;;;;;38.27;28.26;99054.77;1759022;80;22118;-68
2022/06/30 10:30:09;;;;;;;5.58;5.17;;;;;;;37.73;28.78;99056.86;1759008;80;20870;-67
2022/06/30 10:33:02;;;;;;;5.78;5.35;;;;;;;37.36;29.68;99055.51;1739771;78;20887;-68
2022/06/30 10:35:42;;;;;;;5.85;5.25;;;;;;;37.00;30.83;99048.20;1774443;78;20941;-70
2022/06/30 10:38:36;;;;;;;5.72;4.95;;;;;;;36.59;31.44;99052.75;1759038;79;21005;-69
2022/06/30 10:41:15;;;;;;;6.65;6.15;;;;;;;36.30;31.42;99052.45;1759320;80;21688;-70
2022/06/30 10:44:08;;;;;;;6.95;4.85;;;;;;;36.17;31.81;99052.83;1704904;83;20940;-68
2022/06/30 10:46:36;;;;;;;5.72;5.20;;;;;;;36.11;32.19;99051.47;1746421;81;21428;-68
2022/06/30 10:49:10;;;;;;;5.40;4.90;;;;;;;35.78;32.23;99044.66;1740161;81;21416;-67
2022/06/30 10:51:36;;;;;;;5.53;5.22;;;;;;;35.41;32.55;99048.55;1734160;81;20965;-70
2022/06/30 10:54:03;;;;;;;5.45;5.05;;;;;;;35.06;33.09;99054.46;1755174;81;21239;-67
2022/06/30 10:56:55;;;;;;;6.75;4.53;;;;;;;34.89;33.12;99050.45;1723758;81;20995;-69
2022/06/30 10:59:37;;;;;;;5.37;4.97;;;;;;;34.85;33.59;99046.76;1699580;82;20902;-67
2022/06/30 11:02:23;;;;;;;5.72;4.95;;;;;;;34.73;33.65;99048.08;1704441;82;21001;-69
2022/06/30 11:04:51;;;;;;;5.22;4.80;;;;;;;34.66;34.03;99049.20;1699728;82;21416;-66
2022/06/30 11:07:23;;;;;;;5.37;4.97;;;;;;;34.66;34.03;99049.20;1716950;82;21221;-69
2022/06/30 11:09:55;;;;;;;4.92;4.55;;;;;;;34.70;34.18;99051.54;1699582;82;21444;-68
2022/06/30 11:12:35;;;;;;;9.08;5.00;;;;;;;34.76;33.78;99054.31;1727387;82;21428;-69
2022/06/30 11:15:02;;;;;;;5.03;4.60;;;;;;;34.80;33.65;99048.36;1689731;82;20906;-67
2022/06/30 11:17:30;;;;;;;5.00;4.70;;;;;;;34.77;34.03;99044.88;1727354;82;21009;-70
2022/06/30 11:20:10;;;;;;;5.20;4.80;;;;;;;34.73;34.60;99040.60;1723784;82;21244;-68
2022/06/30 11:22:36;;;;;;;4.92;4.62;;;;;;;34.71;34.61;99041.52;1726899;82;20993;-68
2022/06/30 11:27:17;;;;;;;5.15;4.65;;;;;;;34.71;33.72;99042.91;1699456;82;20945;-67
2022/06/30 11:27:43;;;;;;;5.37;5.03;;;;;;;34.72;33.97;99046.48;1708710;82;20958;-68
2022/06/30 11:30:12;;;;;;;5.47;4.97;;;;;;;34.73;34.23;99041.17;1714738;82;20941;-68
2022/06/30 11:32:39;;;;;;;5.80;5.37;;;;;;;34.68;34.42;99037.23;1706642;82;21501;-68
2022/06/30 11:35:08;;;;;;;5.50;5.10;;;;;;;34.59;35.08;99048.95;1713277;82;21504;-69
2022/06/30 11:37:34;;;;;;;6.05;4.95;;;;;;;34.54;35.00;99044.98;1739158;82;20931;-69
2022/06/30 11:40:11;;;;;;;5.78;5.28;;;;;;;34.52;34.97;99044.53;1728585;82;20958;-65
2022/06/30 11:42:37;;;;;;;4.90;4.47;;;;;;;34.53;35.29;99048.31;1725223;81;20954;-68
2022/06/30 11:45:19;;;;;;;4.70;4.40;;;;;;;34.59;35.56;99040.67;1701281;82;21244;-67
2022/06/30 11:48:00;;;;;;;6.10;4.97;;;;;;;34.67;35.27;99038.41;1699743;82;20977;-68
2022/06/30 11:50:26;;;;;;;5.85;4.92;;;;;;;34.68;34.92;99041.38;1715655;82;20997;-69
2022/06/30 11:52:55;;;;;;;6.80;5.12;;;;;;;34.59;34.44;99040.67;1699518;82;20902;-68
2022/06/30 11:55:24;;;;;;;5.28;4.87;;;;;;;34.46;34.56;99039.78;1738830;82;20945;-69
2022/06/30 11:57:52;;;;;;;5.03;4.60;;;;;;;34.32;35.16;99038.41;1739106;82;21356;-70
2022/06/30 12:00:25;;;;;;;5.25;4.75;;;;;;;34.23;35.40;99035.74;1702335;82;20906;-69